Time;durP1;ratioP1;P1;durP2;ratioP2;P2;SDS_P1;SDS_P2;PMS_P1;PMS_P2;Temp;Humidity;BMP_temperature;BMP_pressure;BME280_temperature;BME280_humidity;BME280_pressure;Samples;Min_cycle;Max_cycle;Signal;HPM_P1;HPM_P2
2023/05/17 00:00:32;;;;;;;0.80;0.80;;;6.40;99.90;;;;;;4963962;28;20641;-86
2023/05/17 00:02:58;;;;;;;0.70;0.70;;;6.40;99.90;;;;;;4959007;28;20204;-87
2023/05/17 00:05:27;;;;;;;1.10;0.80;;;6.30;99.90;;;;;;4996544;28;20592;-86
2023/05/17 00:07:53;;;;;;;0.80;0.70;;;;;;;;;;4990015;28;20171;-88
2023/05/17 00:10:18;;;;;;;1.10;0.90;;;6.30;99.90;;;;;;4980320;28;20578;-88
2023/05/17 00:12:45;;;;;;;3.27;0.93;;;;;;;;;;4983889;28;20429;-88
2023/05/17 00:15:10;;;;;;;2.70;0.73;;;6.20;99.90;;;;;;4993864;28;20250;-88
2023/05/17 00:17:36;;;;;;;5.30;1.27;;;;;;;;;;4983093;28;20184;-88
2023/05/17 00:20:04;;;;;;;2.25;0.60;;;6.20;99.90;;;;;;4978499;28;20700;-87
2023/05/17 00:22:30;;;;;;;2.78;0.90;;;6.20;99.90;;;;;;4966601;28;20184;-88
2023/05/17 00:24:55;;;;;;;1.97;1.00;;;;;;;;;;4963675;28;20210;-88
2023/05/17 00:27:21;;;;;;;2.47;1.07;;;6.10;99.90;;;;;;4970409;28;20549;-87
2023/05/17 00:29:47;;;;;;;3.30;0.80;;;6.00;99.90;;;;;;4961396;28;20430;-87
2023/05/17 00:32:12;;;;;;;3.00;1.37;;;6.00;99.90;;;;;;4955436;28;20560;-86
2023/05/17 00:34:37;;;;;;;1.90;0.60;;;5.90;99.90;;;;;;4960700;28;20199;-86
2023/05/17 00:37:03;;;;;;;1.20;0.93;;;5.90;99.90;;;;;;4967387;28;20211;-86
2023/05/17 00:39:29;;;;;;;0.67;0.57;;;5.60;99.90;;;;;;4974148;28;20177;-86
2023/05/17 00:41:55;;;;;;;0.70;0.50;;;;;;;;;;4981779;28;20184;-88
2023/05/17 00:44:20;;;;;;;0.87;0.77;;;5.70;99.90;;;;;;4972709;28;21725;-87
2023/05/17 00:46:46;;;;;;;1.30;0.80;;;;;;;;;;4967800;28;20812;-88
2023/05/17 00:49:12;;;;;;;5.30;1.25;;;5.60;99.90;;;;;;4965065;28;20176;-87
2023/05/17 00:51:39;;;;;;;1.97;0.93;;;5.60;99.90;;;;;;4971183;28;20177;-86
2023/05/17 00:54:05;;;;;;;1.23;0.80;;;5.60;99.90;;;;;;4974278;28;20197;-87
2023/05/17 00:56:31;;;;;;;2.63;0.77;;;5.50;99.90;;;;;;4973022;28;20207;-82
2023/05/17 00:58:57;;;;;;;2.97;0.93;;;5.60;99.90;;;;;;4955279;28;20187;-84
2023/05/17 01:01:25;;;;;;;1.10;0.90;;;5.40;99.90;;;;;;4945936;28;20279;-83
2023/05/17 01:03:50;;;;;;;1.50;0.80;;;6.10;99.90;;;;;;4966659;28;20552;-83
2023/05/17 01:06:16;;;;;;;1.33;1.00;;;5.30;99.90;;;;;;4953854;28;20230;-83
2023/05/17 01:08:43;;;;;;;3.47;1.10;;;5.40;99.90;;;;;;4967641;28;20463;-83
2023/05/17 01:12:04;;;;;;;0.95;0.85;;;5.30;99.90;;;;;;4967588;28;20799;-84
2023/05/17 01:14:38;;;;;;;3.38;1.00;;;5.20;99.90;;;;;;4897913;29;20666;-83
2023/05/17 01:17:11;;;;;;;0.60;0.60;;;5.20;99.90;;;;;;4888625;29;20189;-83
2023/05/17 01:20:00;;;;;;;6.18;1.42;;;5.20;99.90;;;;;;4935703;28;20278;-84
2023/05/17 01:22:34;;;;;;;3.72;0.80;;;5.20;99.90;;;;;;4963667;28;20622;-83
2023/05/17 01:25:15;;;;;;;1.67;1.30;;;5.10;99.90;;;;;;4961682;28;20221;-83
2023/05/17 01:27:44;;;;;;;1.73;0.70;;;5.10;99.90;;;;;;4959402;28;20180;-82
2023/05/17 01:30:12;;;;;;;3.25;1.27;;;5.10;99.90;;;;;;4962945;28;20685;-83
2023/05/17 01:32:41;;;;;;;1.42;1.33;;;5.10;99.90;;;;;;4961756;28;20168;-83
2023/05/17 01:35:07;;;;;;;0.50;0.50;;;5.00;99.90;;;;;;4948195;28;20196;-83
2023/05/17 01:37:33;;;;;;;2.25;0.80;;;5.00;99.90;;;;;;4959390;28;20302;-83
2023/05/17 01:39:58;;;;;;;4.33;1.03;;;5.00;99.90;;;;;;4944457;28;20749;-84
2023/05/17 01:42:32;;;;;;;0.90;0.90;;;5.00;99.90;;;;;;4952290;28;20893;-83
2023/05/17 01:45:21;;;;;;;2.88;0.95;;;5.00;99.90;;;;;;4958787;28;20748;-84
2023/05/17 01:48:14;;;;;;;1.40;1.20;;;5.00;99.90;;;;;;4962404;28;20652;-84
2023/05/17 01:50:41;;;;;;;3.53;1.55;;;5.00;99.90;;;;;;4948887;28;20179;-84
2023/05/17 01:53:10;;;;;;;0.60;0.60;;;5.10;99.90;;;;;;4947916;28;20669;-83
2023/05/17 01:55:43;;;;;;;1.83;0.95;;;5.10;99.90;;;;;;4961790;28;20641;-83
2023/05/17 01:58:11;;;;;;;1.50;1.40;;;5.10;99.90;;;;;;4952575;28;20199;-83
2023/05/17 02:00:40;;;;;;;1.17;0.95;;;5.10;99.90;;;;;;4959931;28;20184;-83
2023/05/17 02:03:05;;;;;;;1.42;0.80;;;5.10;99.90;;;;;;4944421;28;20212;-84
2023/05/17 02:05:31;;;;;;;1.17;1.07;;;5.10;99.90;;;;;;4955982;28;20204;-82
2023/05/17 02:07:56;;;;;;;5.77;1.00;;;5.10;99.90;;;;;;4964598;28;20185;-84
2023/05/17 02:10:22;;;;;;;6.23;1.00;;;5.10;99.90;;;;;;4959925;28;20279;-83
2023/05/17 02:12:47;;;;;;;1.30;0.97;;;5.10;99.90;;;;;;4960411;28;20215;-83
2023/05/17 02:15:15;;;;;;;1.23;1.00;;;5.10;99.90;;;;;;4943743;28;20765;-83
2023/05/17 02:17:43;;;;;;;1.70;0.85;;;5.10;99.90;;;;;;4959871;28;20200;-83
2023/05/17 02:20:10;;;;;;;0.90;0.80;;;5.10;99.90;;;;;;4949896;28;20208;-83
2023/05/17 02:22:36;;;;;;;0.98;0.70;;;5.10;99.90;;;;;;4961946;28;20191;-83
2023/05/17 02:25:01;;;;;;;1.10;1.00;;;5.10;99.90;;;;;;4959168;28;20223;-82
2023/05/17 02:27:27;;;;;;;4.33;0.90;;;5.10;99.90;;;;;;4958852;28;20177;-83
2023/05/17 02:29:53;;;;;;;1.10;0.80;;;5.10;99.90;;;;;;4946533;28;20180;-83
2023/05/17 02:32:18;;;;;;;1.90;1.33;;;5.10;99.90;;;;;;4962114;28;20167;-84
2023/05/17 02:34:44;;;;;;;2.00;1.30;;;5.10;99.90;;;;;;4944504;28;20212;-83
2023/05/17 02:37:09;;;;;;;2.73;0.77;;;5.10;99.90;;;;;;4961859;28;21354;-83
2023/05/17 02:39:35;;;;;;;1.50;0.80;;;5.10;99.90;;;;;;4948527;28;20191;-83
2023/05/17 02:42:00;;;;;;;1.10;0.70;;;5.10;99.90;;;;;;4962475;28;20211;-84
2023/05/17 02:44:26;;;;;;;3.13;0.80;;;5.10;99.90;;;;;;4958470;28;20228;-84
2023/05/17 02:46:51;;;;;;;1.63;0.80;;;5.10;99.90;;;;;;4946611;28;20184;-84
2023/05/17 02:49:17;;;;;;;4.63;0.90;;;5.10;99.90;;;;;;4945019;28;20180;-84
2023/05/17 02:51:42;;;;;;;1.57;1.03;;;5.10;99.90;;;;;;4961936;28;20188;-83
2023/05/17 02:54:08;;;;;;;2.37;1.30;;;5.00;99.90;;;;;;4960598;28;20214;-83
2023/05/17 02:56:33;;;;;;;3.83;1.10;;;5.00;99.90;;;;;;4949512;28;20266;-83
2023/05/17 02:59:00;;;;;;;3.07;1.00;;;5.00;99.90;;;;;;4948530;28;20263;-84
2023/05/17 03:01:26;;;;;;;1.58;0.80;;;5.00;99.90;;;;;;4958648;28;20203;-84
2023/05/17 03:03:52;;;;;;;3.72;1.00;;;4.90;99.90;;;;;;4944906;28;20228;-83
2023/05/17 03:06:17;;;;;;;1.37;0.87;;;4.90;99.90;;;;;;4962898;28;20197;-82
2023/05/17 03:08:43;;;;;;;2.20;1.23;;;4.90;99.90;;;;;;4961636;28;20179;-83
2023/05/17 03:11:08;;;;;;;0.80;0.80;;;4.90;99.90;;;;;;4946121;28;21183;-82
2023/05/17 03:13:34;;;;;;;4.80;0.87;;;4.90;99.90;;;;;;4944707;28;20196;-83
2023/05/17 03:15:59;;;;;;;2.00;1.20;;;4.90;99.90;;;;;;4961226;28;20184;-83
2023/05/17 03:18:25;;;;;;;2.00;1.17;;;4.80;99.90;;;;;;4948893;28;20180;-84
2023/05/17 03:20:51;;;;;;;0.85;0.70;;;4.80;99.90;;;;;;4962119;28;20204;-84
2023/05/17 03:23:17;;;;;;;4.33;1.20;;;4.80;99.90;;;;;;4963562;28;20219;-83
2023/05/17 03:25:43;;;;;;;3.47;1.00;;;4.80;99.90;;;;;;4944162;28;20222;-84
2023/05/17 03:28:08;;;;;;;5.43;1.30;;;4.80;99.90;;;;;;4961079;28;20256;-83
2023/05/17 03:30:34;;;;;;;1.40;1.20;;;4.80;99.90;;;;;;4964114;28;20853;-83
2023/05/17 03:32:59;;;;;;;3.70;1.20;;;4.90;99.90;;;;;;4961985;28;20184;-83
2023/05/17 03:35:25;;;;;;;4.23;1.00;;;4.90;99.90;;;;;;4961174;28;20514;-84
2023/05/17 03:37:50;;;;;;;6.83;1.43;;;4.90;99.90;;;;;;4961043;28;20267;-84
2023/05/17 03:40:16;;;;;;;1.53;0.87;;;4.90;99.90;;;;;;4960810;28;20176;-84
2023/05/17 03:42:41;;;;;;;10.00;1.40;;;4.90;99.90;;;;;;4961833;28;20188;-83
2023/05/17 03:45:07;;;;;;;1.00;0.80;;;4.90;99.90;;;;;;4949417;28;20200;-85
2023/05/17 03:47:33;;;;;;;1.20;1.10;;;4.90;99.90;;;;;;4963676;28;20229;-83
2023/05/17 03:49:58;;;;;;;1.73;1.30;;;4.90;99.90;;;;;;4946238;28;20450;-83
2023/05/17 03:52:24;;;;;;;2.73;1.13;;;4.90;99.90;;;;;;4948796;28;20187;-83
2023/05/17 03:54:50;;;;;;;0.80;0.73;;;5.00;99.90;;;;;;4958899;28;20209;-83
2023/05/17 03:57:15;;;;;;;0.80;0.60;;;4.90;99.90;;;;;;4963187;28;20184;-83
2023/05/17 03:59:41;;;;;;;3.03;0.90;;;4.90;99.90;;;;;;4959539;28;20497;-82
2023/05/17 04:02:06;;;;;;;3.60;1.30;;;4.80;99.90;;;;;;4936449;28;20584;-82
2023/05/17 04:04:32;;;;;;;4.90;1.60;;;4.90;99.90;;;;;;4938606;28;20288;-83
2023/05/17 04:06:58;;;;;;;1.30;0.97;;;5.00;99.90;;;;;;4959125;28;20634;-83
2023/05/17 04:09:24;;;;;;;1.20;0.80;;;5.10;99.90;;;;;;4963308;28;20181;-82
2023/05/17 04:11:49;;;;;;;1.73;1.63;;;5.20;99.90;;;;;;4956813;28;20184;-83
2023/05/17 04:14:19;;;;;;;1.47;0.90;;;5.30;99.90;;;;;;4957001;28;20949;-82
2023/05/17 04:16:45;;;;;;;2.40;1.45;;;5.40;99.90;;;;;;4955756;28;20192;-83
2023/05/17 04:19:10;;;;;;;1.57;1.07;;;5.60;99.90;;;;;;4958998;28;20225;-83
2023/05/17 04:21:36;;;;;;;5.50;1.70;;;5.70;99.90;;;;;;4946948;28;20185;-82
2023/05/17 04:24:01;;;;;;;1.43;0.93;;;5.90;99.90;;;;;;4954143;28;20215;-83
2023/05/17 04:26:28;;;;;;;2.50;1.00;;;6.10;99.90;;;;;;4947570;28;20259;-83
2023/05/17 04:28:53;;;;;;;6.57;1.00;;;6.40;99.90;;;;;;4952031;28;20184;-81
2023/05/17 04:31:19;;;;;;;1.97;1.20;;;6.80;99.90;;;;;;4951612;28;20236;-83
2023/05/17 04:33:45;;;;;;;3.40;1.13;;;7.50;99.90;;;;;;4953046;28;20215;-82
2023/05/17 04:36:10;;;;;;;4.20;1.80;;;8.30;99.90;;;;;;4939122;28;20560;-82
2023/05/17 04:38:36;;;;;;;1.60;0.83;;;8.10;99.90;;;;;;4947508;28;20582;-82
2023/05/17 04:41:06;;;;;;;1.23;0.83;;;8.60;99.90;;;;;;4957957;28;20721;-83
2023/05/17 04:43:32;;;;;;;2.58;1.48;;;8.90;99.90;;;;;;4962706;28;20499;-83
2023/05/17 04:45:58;;;;;;;1.45;1.20;;;9.10;99.90;;;;;;4964357;28;20191;-82
2023/05/17 04:48:25;;;;;;;1.13;0.75;;;9.20;99.90;;;;;;4958826;28;20555;-81
2023/05/17 04:50:51;;;;;;;1.25;1.15;;;9.30;99.90;;;;;;4947327;28;20185;-83
2023/05/17 04:53:16;;;;;;;1.55;1.20;;;9.10;99.90;;;;;;4958929;28;20203;-82
2023/05/17 04:55:42;;;;;;;5.80;1.30;;;9.00;99.90;;;;;;4957926;28;20588;-82
2023/05/17 04:58:08;;;;;;;2.30;0.87;;;9.20;99.90;;;;;;4962572;28;20542;-83
2023/05/17 05:00:33;;;;;;;2.17;1.10;;;9.70;99.90;;;;;;4963302;28;20187;-80
2023/05/17 05:02:59;;;;;;;3.53;1.30;;;11.20;99.90;;;;;;4954201;28;20458;-80
2023/05/17 05:05:25;;;;;;;2.63;1.07;;;11.20;99.90;;;;;;4948077;28;20889;-80
2023/05/17 05:07:50;;;;;;;3.43;1.33;;;12.70;99.90;;;;;;4965590;28;20561;-83
2023/05/17 05:10:16;;;;;;;3.33;1.37;;;14.70;99.90;;;;;;4963829;28;20207;-82
2023/05/17 05:12:42;;;;;;;3.00;1.10;;;16.50;99.90;;;;;;4963453;28;20230;-82
2023/05/17 05:15:08;;;;;;;2.10;1.40;;;17.70;99.90;;;;;;4962242;28;20231;-83
2023/05/17 05:17:34;;;;;;;1.57;1.00;;;18.40;99.90;;;;;;4961693;28;20216;-83
2023/05/17 05:19:59;;;;;;;2.57;1.03;;;19.10;99.90;;;;;;4961893;28;20457;-84
2023/05/17 05:22:25;;;;;;;3.80;1.40;;;19.10;99.90;;;;;;4956063;28;20467;-83
2023/05/17 05:24:51;;;;;;;1.60;0.93;;;19.70;99.90;;;;;;4960227;28;20303;-83
2023/05/17 05:27:16;;;;;;;1.53;1.27;;;20.90;96.60;;;;;;4959558;28;20204;-81
2023/05/17 05:29:42;;;;;;;2.50;0.83;;;22.50;94.90;;;;;;4959801;28;20180;-81
2023/05/17 05:32:08;;;;;;;3.73;1.77;;;24.00;91.10;;;;;;4948428;28;20179;-82
2023/05/17 05:34:33;;;;;;;3.80;1.80;;;24.50;80.20;;;;;;4962062;28;20239;-82
2023/05/17 05:36:59;;;;;;;4.43;1.67;;;25.10;71.50;;;;;;4962309;28;20460;-82
2023/05/17 05:39:26;;;;;;;2.30;1.20;;;25.50;67.40;;;;;;4949709;28;20184;-81
2023/05/17 05:41:52;;;;;;;2.27;1.53;;;24.80;64.10;;;;;;4962693;28;20191;-82
2023/05/17 05:44:17;;;;;;;2.73;1.27;;;24.90;65.60;;;;;;4960462;28;20479;-83
2023/05/17 05:46:43;;;;;;;3.90;1.17;;;24.20;62.00;;;;;;4962222;28;20226;-83
2023/05/17 05:49:08;;;;;;;1.57;1.30;;;24.10;62.40;;;;;;4960389;28;20215;-83
2023/05/17 05:51:34;;;;;;;5.40;1.93;;;23.20;63.80;;;;;;4962494;28;20187;-82
2023/05/17 05:53:59;;;;;;;5.07;1.60;;;24.20;63.90;;;;;;4959989;28;20689;-82
2023/05/17 05:56:26;;;;;;;2.07;1.40;;;;;;;;;;4958613;28;20188;-83
2023/05/17 05:58:55;;;;;;;2.77;2.17;;;24.80;60.90;;;;;;4963019;28;20186;-83
2023/05/17 06:01:21;;;;;;;5.20;2.10;;;;;;;;;;4960002;28;20916;-82
2023/05/17 06:03:47;;;;;;;5.90;1.50;;;27.40;58.40;;;;;;4961724;28;20500;-82
2023/05/17 06:06:15;;;;;;;3.53;2.00;;;;;;;;;;4961538;28;20652;-82
2023/05/17 06:08:42;;;;;;;2.33;1.40;;;26.50;53.70;;;;;;4959374;28;20277;-83
2023/05/17 06:11:07;;;;;;;3.70;2.00;;;24.70;54.50;;;;;;4962965;28;20438;-83
2023/05/17 06:13:33;;;;;;;5.03;2.20;;;24.80;56.80;;;;;;4957660;28;20464;-82
2023/05/17 06:15:58;;;;;;;3.90;1.73;;;25.70;56.40;;;;;;4960269;28;20198;-83
2023/05/17 06:18:24;;;;;;;4.93;2.10;;;26.10;55.60;;;;;;4961456;28;20183;-82
2023/05/17 06:20:50;;;;;;;5.37;2.00;;;;;;;;;;4959897;28;20276;-82
2023/05/17 06:23:16;;;;;;;3.60;3.00;;;;;;;;;;4961181;28;20208;-83
2023/05/17 06:25:42;;;;;;;2.70;2.50;;;;;;;;;;4961705;28;20579;-82
2023/05/17 06:28:08;;;;;;;3.03;2.30;;;;;;;;;;4965701;28;20495;-82
2023/05/17 06:30:34;;;;;;;4.27;3.13;;;26.50;49.70;;;;;;4963068;28;20442;-83
2023/05/17 06:33:00;;;;;;;2.43;2.20;;;26.70;52.70;;;;;;4960419;28;20562;-83
2023/05/17 06:35:26;;;;;;;2.27;2.07;;;26.90;51.30;;;;;;4961965;28;20462;-82
2023/05/17 06:37:51;;;;;;;4.37;2.77;;;26.90;50.00;;;;;;4947621;28;20500;-82
2023/05/17 06:40:17;;;;;;;4.63;2.87;;;26.80;48.80;;;;;;4963698;28;20540;-82
2023/05/17 06:42:42;;;;;;;2.47;2.27;;;27.40;49.40;;;;;;4960639;28;20192;-82
2023/05/17 06:45:08;;;;;;;2.43;2.23;;;27.80;50.20;;;;;;4962882;28;20201;-83
2023/05/17 06:47:34;;;;;;;2.43;2.00;;;26.90;50.00;;;;;;4961674;28;20272;-82
2023/05/17 06:50:00;;;;;;;2.10;1.90;;;25.90;50.50;;;;;;4960280;28;20862;-82
2023/05/17 06:52:25;;;;;;;2.40;2.13;;;25.50;50.70;;;;;;4961435;28;20180;-83
2023/05/17 06:54:51;;;;;;;3.57;1.90;;;24.80;51.70;;;;;;4962220;28;20832;-82
2023/05/17 06:57:17;;;;;;;4.90;1.90;;;24.40;53.30;;;;;;4962410;28;20707;-82
2023/05/17 06:59:42;;;;;;;9.70;2.70;;;25.30;53.80;;;;;;4956508;28;20192;-82
2023/05/17 07:02:08;;;;;;;3.77;2.03;;;25.70;51.30;;;;;;4961850;28;20179;-82
2023/05/17 07:04:34;;;;;;;3.40;2.60;;;24.40;52.20;;;;;;4962253;28;20656;-82
2023/05/17 07:06:59;;;;;;;6.10;2.67;;;24.50;53.00;;;;;;4962622;28;20172;-82
2023/05/17 07:09:25;;;;;;;4.47;2.20;;;23.40;54.30;;;;;;4960501;28;20236;-82
2023/05/17 07:11:50;;;;;;;4.43;2.90;;;23.10;56.00;;;;;;4959522;28;20199;-82
2023/05/17 07:14:16;;;;;;;2.63;2.30;;;24.00;55.10;;;;;;4942060;28;20214;-82
2023/05/17 07:16:41;;;;;;;5.63;2.07;;;24.10;54.70;;;;;;4960527;28;20204;-82
2023/05/17 07:19:07;;;;;;;1.93;1.73;;;25.20;55.60;;;;;;4959408;28;20188;-82
2023/05/17 07:21:33;;;;;;;3.20;2.00;;;26.00;52.30;;;;;;4949118;28;20191;-83
2023/05/17 07:23:58;;;;;;;5.63;3.00;;;27.30;51.30;;;;;;4948585;28;20217;-81
2023/05/17 07:26:24;;;;;;;7.00;2.60;;;;;;;;;;4963158;28;20191;-82
2023/05/17 07:28:50;;;;;;;2.30;2.10;;;;;;;;;;4961595;28;20182;-82
2023/05/17 07:31:16;;;;;;;6.13;2.77;;;25.60;48.40;;;;;;4959341;28;20442;-82
2023/05/17 07:33:42;;;;;;;6.30;2.70;;;25.20;50.40;;;;;;4959183;28;20824;-81
2023/05/17 07:36:07;;;;;;;2.53;2.33;;;25.20;50.70;;;;;;4960676;28;20591;-82
2023/05/17 07:38:34;;;;;;;3.03;2.10;;;25.30;51.80;;;;;;4962763;28;20192;-82
2023/05/17 07:41:00;;;;;;;2.90;2.00;;;26.00;50.60;;;;;;4960350;28;20205;-82
2023/05/17 07:43:26;;;;;;;5.77;3.20;;;;;;;;;;4960867;28;20480;-83
2023/05/17 07:45:51;;;;;;;2.70;2.47;;;29.80;53.50;;;;;;4943984;28;20949;-82
2023/05/17 07:48:17;;;;;;;7.87;3.33;;;29.70;49.50;;;;;;4961462;28;20450;-82
2023/05/17 07:50:43;;;;;;;3.60;3.17;;;29.60;47.50;;;;;;4961624;28;20194;-82
2023/05/17 07:53:09;;;;;;;3.63;2.90;;;29.10;45.60;;;;;;4961406;28;20566;-81
2023/05/17 07:55:35;;;;;;;5.53;3.33;;;;;;;;;;4962109;28;20435;-81
2023/05/17 07:58:00;;;;;;;6.30;3.57;;;28.50;51.20;;;;;;4961298;28;20209;-82
2023/05/17 08:00:26;;;;;;;5.10;3.50;;;;;;;;;;4960400;28;20435;-82
2023/05/17 08:02:52;;;;;;;5.90;3.20;;;28.80;48.90;;;;;;4961876;28;20687;-81
2023/05/17 08:05:18;;;;;;;3.47;3.20;;;;;;;;;;4958024;28;20532;-82
2023/05/17 08:07:43;;;;;;;3.60;3.30;;;27.70;44.10;;;;;;4962265;28;20182;-82
2023/05/17 08:10:09;;;;;;;4.73;3.13;;;27.30;44.80;;;;;;4965290;28;20438;-83
2023/05/17 08:12:35;;;;;;;3.47;2.77;;;26.30;45.40;;;;;;4959002;28;20196;-81
2023/05/17 08:15:01;;;;;;;3.70;3.30;;;24.80;46.50;;;;;;4964990;28;20465;-82
2023/05/17 08:17:26;;;;;;;4.37;2.70;;;21.90;49.10;;;;;;4964480;28;20207;-82
2023/05/17 08:19:52;;;;;;;3.03;2.60;;;21.90;53.90;;;;;;4964729;28;20196;-83
2023/05/17 08:22:18;;;;;;;3.90;2.50;;;21.60;54.10;;;;;;4965247;28;20620;-81
2023/05/17 08:24:44;;;;;;;6.97;2.50;;;20.90;54.00;;;;;;4962938;28;20219;-82
2023/05/17 08:27:10;;;;;;;4.00;2.20;;;20.10;56.60;;;;;;4963633;28;20416;-81
2023/05/17 08:29:36;;;;;;;4.60;2.37;;;19.40;57.90;;;;;;4955008;28;20188;-83
2023/05/17 08:32:01;;;;;;;6.43;2.80;;;18.10;60.50;;;;;;4964127;28;20436;-81
2023/05/17 08:34:27;;;;;;;6.40;1.97;;;17.70;60.20;;;;;;4964528;28;20455;-81
2023/05/17 08:36:52;;;;;;;4.10;1.93;;;17.00;63.90;;;;;;4948059;28;20192;-82
2023/05/17 08:39:19;;;;;;;5.20;2.43;;;17.10;65.70;;;;;;4964457;28;20188;-81
2023/05/17 08:41:46;;;;;;;6.03;2.80;;;18.00;67.50;;;;;;4964434;28;20177;-81
2023/05/17 08:44:15;;;;;;;6.57;3.00;;;18.20;66.90;;;;;;4963940;28;20474;-81
2023/05/17 08:46:42;;;;;;;3.53;2.43;;;18.70;64.30;;;;;;4959756;28;20439;-81
2023/05/17 08:49:11;;;;;;;4.23;2.30;;;19.40;59.80;;;;;;4961632;28;20590;-81
2023/05/17 08:51:38;;;;;;;4.50;2.40;;;19.20;57.90;;;;;;4963070;28;20458;-81
2023/05/17 08:54:05;;;;;;;4.17;2.00;;;20.10;56.50;;;;;;4963320;28;20459;-82
2023/05/17 08:56:34;;;;;;;8.87;3.33;;;21.00;56.70;;;;;;4964924;28;20435;-81
2023/05/17 08:59:01;;;;;;;6.60;3.07;;;22.10;57.20;;;;;;4963460;28;20442;-82
2023/05/17 09:01:28;;;;;;;7.40;2.90;;;22.90;54.40;;;;;;4941171;28;20451;-82
2023/05/17 09:03:54;;;;;;;6.73;2.83;;;21.60;51.60;;;;;;4946912;28;20502;-82
2023/05/17 09:06:21;;;;;;;5.07;2.60;;;21.10;55.90;;;;;;4949288;28;20436;-82
2023/05/17 09:08:50;;;;;;;5.67;2.80;;;21.60;54.90;;;;;;4962173;28;20184;-82
2023/05/17 09:11:25;;;;;;;5.03;2.90;;;22.00;55.10;;;;;;4962397;28;20467;-81
2023/05/17 09:13:50;;;;;;;2.87;2.40;;;21.20;52.80;;;;;;4962720;28;20470;-80
2023/05/17 09:16:16;;;;;;;10.47;2.67;;;20.20;51.90;;;;;;4962043;28;21006;-81
2023/05/17 09:18:42;;;;;;;4.23;3.00;;;20.50;53.80;;;;;;4963097;28;20240;-80
2023/05/17 09:21:12;;;;;;;6.47;3.10;;;20.50;52.40;;;;;;4942584;28;20185;-81
2023/05/17 09:23:39;;;;;;;3.67;2.53;;;20.20;52.50;;;;;;4962054;28;20212;-80
2023/05/17 09:26:08;;;;;;;5.57;2.70;;;19.60;53.60;;;;;;4962739;28;20976;-83
2023/05/17 09:28:39;;;;;;;3.83;2.17;;;18.90;56.50;;;;;;4957119;28;20442;-83
2023/05/17 09:31:09;;;;;;;12.23;2.27;;;17.70;56.60;;;;;;4963626;28;20424;-82
2023/05/17 09:33:46;;;;;;;4.53;2.47;;;18.00;58.10;;;;;;4964356;28;20827;-82
2023/05/17 09:36:22;;;;;;;3.00;1.83;;;17.60;59.50;;;;;;4963496;28;20799;-82
2023/05/17 09:38:58;;;;;;;5.00;2.87;;;17.40;60.30;;;;;;4961731;28;20942;-81
2023/05/17 09:41:29;;;;;;;4.40;2.63;;;17.80;60.80;;;;;;4964985;28;20813;-81
2023/05/17 09:44:02;;;;;;;4.40;2.20;;;17.30;61.10;;;;;;4964351;28;20475;-81
2023/05/17 09:46:33;;;;;;;5.07;2.30;;;16.10;63.40;;;;;;4963350;28;20501;-81
2023/05/17 09:49:01;;;;;;;5.00;3.40;;;16.30;64.10;;;;;;4966271;28;20430;-82
2023/05/17 09:51:35;;;;;;;4.30;2.10;;;16.10;65.70;;;;;;4963494;28;20522;-81
2023/05/17 09:54:01;;;;;;;6.40;2.93;;;15.80;64.10;;;;;;4961619;28;20842;-81
2023/05/17 09:56:28;;;;;;;3.63;2.20;;;15.20;65.70;;;;;;4961162;28;20446;-81
2023/05/17 09:58:54;;;;;;;3.90;2.53;;;15.30;69.40;;;;;;4948948;28;20629;-81
2023/05/17 10:01:23;;;;;;;7.90;2.10;;;15.40;73.50;;;;;;4945260;28;20459;-81
2023/05/17 10:03:51;;;;;;;4.40;2.00;;;15.70;74.60;;;;;;4963855;28;20505;-82
2023/05/17 10:06:20;;;;;;;12.10;3.03;;;15.80;69.40;;;;;;4962096;28;20442;-81
2023/05/17 10:08:51;;;;;;;2.00;1.60;;;15.80;68.80;;;;;;4962084;28;20439;-81
2023/05/17 10:11:21;;;;;;;4.40;2.30;;;15.40;72.80;;;;;;4963520;28;20886;-81
2023/05/17 10:13:54;;;;;;;3.00;1.60;;;15.30;74.30;;;;;;4944172;28;20459;-82
2023/05/17 10:16:21;;;;;;;5.90;1.70;;;15.60;69.80;;;;;;4948306;28;20439;-82
2023/05/17 10:18:48;;;;;;;3.27;1.67;;;15.70;69.90;;;;;;4961616;28;20505;-81
2023/05/17 10:21:14;;;;;;;8.30;1.97;;;15.50;70.60;;;;;;4962710;28;20497;-82
2023/05/17 10:23:43;;;;;;;3.63;3.33;;;15.50;71.00;;;;;;4954575;28;20482;-81
2023/05/17 10:26:09;;;;;;;2.10;1.90;;;15.50;70.90;;;;;;4963805;28;20461;-81
2023/05/17 10:28:36;;;;;;;3.00;1.87;;;15.50;72.20;;;;;;4962262;28;20963;-81
2023/05/17 10:31:02;;;;;;;3.27;1.47;;;15.50;69.90;;;;;;4959017;28;20914;-81
2023/05/17 10:33:31;;;;;;;3.27;2.27;;;15.40;70.20;;;;;;4965797;28;20651;-82
2023/05/17 10:35:58;;;;;;;3.90;1.83;;;15.50;72.60;;;;;;4955698;28;20446;-81
2023/05/17 10:38:25;;;;;;;1.93;1.73;;;15.30;70.00;;;;;;4965733;28;20432;-81
2023/05/17 10:40:52;;;;;;;3.60;2.00;;;15.10;70.50;;;;;;4945431;28;20480;-82
2023/05/17 10:43:19;;;;;;;8.60;2.00;;;15.90;72.10;;;;;;4961094;28;20466;-81
2023/05/17 10:45:45;;;;;;;6.10;2.80;;;15.90;73.20;;;;;;4961721;28;20470;-81
2023/05/17 10:48:14;;;;;;;5.43;2.30;;;16.00;72.00;;;;;;4963903;28;20435;-81
2023/05/17 10:50:41;;;;;;;6.07;2.33;;;16.10;70.10;;;;;;4960765;28;20455;-81
2023/05/17 10:53:10;;;;;;;2.60;2.13;;;15.90;74.30;;;;;;4962742;28;20444;-81
2023/05/17 10:55:40;;;;;;;2.37;2.07;;;15.80;75.50;;;;;;4963883;28;20442;-81
2023/05/17 10:58:14;;;;;;;4.53;2.23;;;15.40;76.40;;;;;;4963058;28;20462;-81
2023/05/17 11:00:41;;;;;;;9.60;1.93;;;15.10;80.50;;;;;;4956809;28;20430;-81
2023/05/17 11:03:14;;;;;;;3.50;2.03;;;15.90;76.50;;;;;;4964319;28;20460;-81
2023/05/17 11:05:43;;;;;;;3.80;2.17;;;15.80;77.10;;;;;;4964938;28;20459;-81
2023/05/17 11:08:14;;;;;;;4.40;2.57;;;15.70;74.70;;;;;;4950258;28;20431;-81
2023/05/17 11:11:09;;;;;;;1.67;1.57;;;15.40;77.40;;;;;;4951299;28;20913;-81
2023/05/17 11:13:51;;;;;;;6.57;2.67;;;15.00;78.30;;;;;;4964482;28;20448;-82
2023/05/17 11:16:19;;;;;;;2.87;1.23;;;15.20;82.00;;;;;;4962874;28;20431;-82
2023/05/17 11:18:49;;;;;;;4.67;2.10;;;15.60;80.60;;;;;;4961997;28;20432;-80
2023/05/17 11:21:15;;;;;;;4.43;2.20;;;15.70;76.40;;;;;;4945969;28;20515;-79
2023/05/17 11:23:46;;;;;;;6.93;2.50;;;15.70;78.50;;;;;;4963383;28;20474;-82
2023/05/17 11:26:22;;;;;;;5.00;2.67;;;15.70;79.80;;;;;;4958904;28;20447;-82
2023/05/17 11:28:55;;;;;;;2.70;1.57;;;15.90;75.90;;;;;;4959950;28;20446;-80
2023/05/17 11:31:29;;;;;;;2.43;1.80;;;15.40;73.60;;;;;;4947227;28;20435;-82
2023/05/17 11:33:57;;;;;;;4.87;1.90;;;15.30;80.10;;;;;;4949658;28;20861;-80
2023/05/17 11:36:23;;;;;;;4.83;2.20;;;15.10;81.10;;;;;;4962052;28;20440;-80
2023/05/17 11:39:21;;;;;;;5.37;2.67;;;14.90;84.20;;;;;;4962877;28;20489;-81
2023/05/17 11:41:50;;;;;;;2.17;1.70;;;14.70;85.20;;;;;;4921023;28;20200;-80
2023/05/17 11:44:23;;;;;;;5.37;1.63;;;14.60;83.50;;;;;;4965823;28;20458;-80
2023/05/17 11:46:50;;;;;;;5.07;2.37;;;14.60;88.80;;;;;;4965659;28;20438;-81
2023/05/17 11:49:15;;;;;;;3.73;2.33;;;15.10;85.10;;;;;;4955768;28;20450;-83
2023/05/17 11:51:41;;;;;;;7.37;1.80;;;15.70;86.10;;;;;;4967397;28;20444;-81
2023/05/17 11:54:08;;;;;;;3.30;1.70;;;15.90;85.00;;;;;;4966879;28;20208;-84
2023/05/17 11:56:37;;;;;;;6.57;2.40;;;15.20;84.60;;;;;;4967801;28;20444;-82
2023/05/17 11:59:03;;;;;;;5.30;2.40;;;15.10;85.60;;;;;;4969552;28;20442;-82
2023/05/17 12:01:42;;;;;;;9.60;2.70;;;15.30;85.80;;;;;;4953183;28;20444;-82
2023/05/17 12:04:07;;;;;;;4.60;2.10;;;15.10;85.30;;;;;;4949414;28;20562;-82
2023/05/17 12:06:34;;;;;;;8.20;2.97;;;15.20;84.00;;;;;;4965582;28;20503;-82
2023/05/17 12:09:00;;;;;;;4.23;1.90;;;14.80;83.90;;;;;;4968720;28;20180;-82
2023/05/17 12:11:26;;;;;;;2.63;2.07;;;14.90;84.30;;;;;;4964952;28;20513;-82
2023/05/17 12:13:52;;;;;;;7.20;2.57;;;15.60;79.80;;;;;;4953100;28;20461;-83
2023/05/17 12:16:20;;;;;;;5.20;2.20;;;15.90;81.30;;;;;;4949276;28;20439;-82
2023/05/17 12:18:48;;;;;;;3.40;2.20;;;16.40;80.90;;;;;;4966379;28;20195;-81
2023/05/17 12:21:15;;;;;;;4.43;2.60;;;15.90;82.60;;;;;;4957977;28;20844;-81
2023/05/17 12:23:44;;;;;;;4.37;2.47;;;15.60;82.70;;;;;;4965629;28;21258;-82
2023/05/17 12:26:15;;;;;;;3.93;2.00;;;15.70;84.90;;;;;;4968520;28;20781;-82
2023/05/17 12:28:43;;;;;;;3.00;2.10;;;15.10;84.90;;;;;;4968017;28;20438;-82
2023/05/17 12:31:16;;;;;;;3.60;2.60;;;15.00;86.30;;;;;;4968405;28;20432;-82
2023/05/17 12:33:43;;;;;;;6.20;1.90;;;14.80;86.60;;;;;;4968233;28;20454;-81
2023/05/17 12:36:11;;;;;;;4.30;2.10;;;14.80;88.50;;;;;;4966405;28;20435;-81
2023/05/17 12:38:40;;;;;;;2.90;1.80;;;15.00;91.30;;;;;;4966107;28;20443;-82
2023/05/17 12:41:09;;;;;;;2.70;1.83;;;15.30;90.60;;;;;;4964807;28;20432;-81
2023/05/17 12:43:36;;;;;;;5.50;2.53;;;15.60;85.80;;;;;;4961795;28;20494;-82
2023/05/17 12:46:22;;;;;;;3.87;2.30;;;15.50;86.40;;;;;;4969114;28;20440;-81
2023/05/17 12:48:50;;;;;;;4.47;2.30;;;15.70;83.30;;;;;;4950214;28;20939;-81
2023/05/17 12:51:19;;;;;;;6.33;2.30;;;15.90;84.30;;;;;;4948366;28;20435;-82
2023/05/17 12:53:53;;;;;;;8.83;2.47;;;15.80;83.80;;;;;;4963186;28;20463;-82
2023/05/17 12:56:25;;;;;;;7.70;3.40;;;15.80;84.60;;;;;;4976092;28;20521;-84
2023/05/17 12:59:19;;;;;;;4.10;2.03;;;15.90;81.10;;;;;;4987619;28;20478;-83